Time;durP1;ratioP1;P1;durP2;ratioP2;P2;SDS_P1;SDS_P2;PMS_P1;PMS_P2;Temp;Humidity;BMP_temperature;BMP_pressure;BME280_temperature;BME280_humidity;BME280_pressure;Samples;Min_cycle;Max_cycle;Signal;HPM_P1;HPM_P2
2022/10/23 00:01:41;;;;;;;13.33;5.30;;;14.70;99.80;;;;;;5038556;28;20212;-86
2022/10/23 00:04:12;;;;;;;6.07;4.90;;;14.60;99.40;;;;;;5038510;28;20208;-86
2022/10/23 00:06:38;;;;;;;7.17;5.27;;;14.50;98.60;;;;;;5039519;28;20181;-85
2022/10/23 00:09:06;;;;;;;6.60;5.13;;;14.40;99.50;;;;;;5047352;28;20215;-86
2022/10/23 00:11:33;;;;;;;7.00;4.77;;;14.40;99.80;;;;;;5050343;28;20298;-86
2022/10/23 00:14:02;;;;;;;5.63;5.03;;;14.40;99.90;;;;;;5038710;28;20223;-86
2022/10/23 00:16:28;;;;;;;6.40;4.80;;;14.40;99.90;;;;;;5041098;28;20212;-88
2022/10/23 00:18:54;;;;;;;9.13;5.33;;;14.40;99.90;;;;;;5038829;28;20183;-88
2022/10/23 00:21:22;;;;;;;5.80;4.73;;;14.40;99.90;;;;;;5038692;28;20325;-86
2022/10/23 00:23:47;;;;;;;6.47;4.60;;;14.50;99.70;;;;;;5035914;28;20196;-86
2022/10/23 00:26:14;;;;;;;6.83;4.97;;;14.40;99.90;;;;;;5038032;28;20189;-86
2022/10/23 00:28:45;;;;;;;7.90;5.17;;;14.40;99.80;;;;;;5047071;28;20185;-86
2022/10/23 00:31:12;;;;;;;10.23;5.00;;;14.40;99.80;;;;;;5055053;28;20275;-86
2022/10/23 00:33:38;;;;;;;12.77;5.07;;;14.40;99.90;;;;;;5053330;28;20177;-86
2022/10/23 00:36:08;;;;;;;9.60;5.10;;;14.30;99.50;;;;;;5039057;28;20312;-87
2022/10/23 00:38:35;;;;;;;5.87;4.90;;;14.30;99.40;;;;;;5035574;28;20191;-87
2022/10/23 00:41:02;;;;;;;7.50;5.27;;;14.30;98.80;;;;;;5036752;28;20205;-87
2022/10/23 00:43:29;;;;;;;6.50;5.20;;;14.20;99.90;;;;;;5037133;28;20181;-86
2022/10/23 00:45:55;;;;;;;5.77;4.77;;;14.20;99.90;;;;;;5035524;28;20259;-87
2022/10/23 00:48:22;;;;;;;7.47;4.93;;;14.20;99.90;;;;;;5036319;28;20554;-87
2022/10/23 00:50:49;;;;;;;9.03;5.17;;;14.20;99.90;;;;;;5038433;28;20239;-86
2022/10/23 00:53:17;;;;;;;6.60;5.53;;;14.20;99.80;;;;;;5035592;28;20196;-87
2022/10/23 00:55:45;;;;;;;7.10;4.97;;;14.20;99.90;;;;;;5035492;28;20220;-86
2022/10/23 00:58:12;;;;;;;9.83;5.53;;;14.20;99.90;;;;;;5035629;28;20323;-86
2022/10/23 01:00:50;;;;;;;7.73;5.27;;;14.20;99.80;;;;;;5036429;28;20240;-86
2022/10/23 01:03:19;;;;;;;7.03;5.43;;;14.20;99.90;;;;;;5036849;28;20181;-87
2022/10/23 01:05:50;;;;;;;7.10;5.50;;;14.20;99.90;;;;;;5035237;28;20268;-86
2022/10/23 01:08:31;;;;;;;5.20;4.60;;;14.20;99.60;;;;;;5033225;28;20198;-86
2022/10/23 01:11:04;;;;;;;8.13;5.20;;;14.00;97.90;;;;;;5036219;28;20216;-86
2022/10/23 01:13:57;;;;;;;6.53;5.03;;;14.10;99.70;;;;;;5056802;28;20172;-86
2022/10/23 01:16:36;;;;;;;5.67;5.17;;;14.00;99.80;;;;;;5048038;28;20252;-86
2022/10/23 01:19:20;;;;;;;8.73;4.67;;;14.00;99.90;;;;;;5032125;28;20192;-86
2022/10/23 01:22:20;;;;;;;6.43;4.70;;;14.10;99.90;;;;;;5031012;28;20233;-86
2022/10/23 01:25:24;;;;;;;8.13;4.97;;;14.20;99.90;;;;;;5031688;28;20181;-86
2022/10/23 01:27:59;;;;;;;6.83;5.07;;;14.10;99.80;;;;;;5047771;28;20191;-87
2022/10/23 01:30:25;;;;;;;5.90;4.93;;;14.10;99.90;;;;;;5031198;28;20239;-87
2022/10/23 01:32:59;;;;;;;6.97;5.10;;;14.00;99.90;;;;;;5032309;28;20679;-86
2022/10/23 01:35:31;;;;;;;6.03;4.60;;;14.00;98.20;;;;;;5032826;28;20601;-86
2022/10/23 01:38:26;;;;;;;5.07;4.70;;;13.90;99.70;;;;;;5029484;28;20208;-87
2022/10/23 01:40:56;;;;;;;9.13;5.43;;;14.00;99.90;;;;;;5020484;28;20298;-86
2022/10/23 01:43:30;;;;;;;5.40;5.00;;;13.90;99.90;;;;;;5029895;28;20187;-87
2022/10/23 01:46:01;;;;;;;8.83;5.07;;;13.90;99.90;;;;;;5032175;28;20193;-86
2022/10/23 01:48:29;;;;;;;8.63;4.73;;;13.90;99.90;;;;;;5033965;28;20191;-86
2022/10/23 01:50:58;;;;;;;5.47;4.40;;;13.90;99.90;;;;;;5034414;28;20223;-86
2022/10/23 01:53:26;;;;;;;9.40;4.80;;;13.80;99.90;;;;;;5033458;28;20826;-86
2022/10/23 01:55:54;;;;;;;7.07;5.03;;;13.80;99.90;;;;;;5028820;28;20221;-86
2022/10/23 01:58:21;;;;;;;5.60;4.83;;;13.80;99.90;;;;;;5037133;28;20214;-86
2022/10/23 02:00:50;;;;;;;5.43;4.73;;;13.80;99.90;;;;;;5037299;28;20227;-86
2022/10/23 02:03:17;;;;;;;5.57;4.40;;;13.80;99.90;;;;;;5052908;28;20179;-85
2022/10/23 02:05:43;;;;;;;6.23;4.87;;;13.80;99.90;;;;;;5042437;28;20196;-86
2022/10/23 02:08:09;;;;;;;5.47;4.67;;;13.80;99.90;;;;;;5038190;28;20211;-87
2022/10/23 02:10:41;;;;;;;8.17;4.40;;;13.80;99.90;;;;;;5037963;28;20288;-87
2022/10/23 02:13:25;;;;;;;5.17;4.67;;;13.70;99.50;;;;;;5037389;28;20215;-86
2022/10/23 02:16:14;;;;;;;6.67;4.67;;;13.50;98.40;;;;;;5035097;28;20307;-87
2022/10/23 02:19:15;;;;;;;8.37;4.90;;;13.50;99.90;;;;;;5037817;28;20213;-86
2022/10/23 02:22:15;;;;;;;5.87;4.53;;;13.40;99.90;;;;;;5037595;28;20216;-86
2022/10/23 02:24:55;;;;;;;5.40;4.70;;;13.50;99.90;;;;;;5040180;28;20207;-86
2022/10/23 02:27:32;;;;;;;6.03;4.70;;;13.50;99.90;;;;;;5041044;28;20196;-86
2022/10/23 02:30:05;;;;;;;5.10;4.63;;;13.50;99.90;;;;;;5056089;28;20287;-87
2022/10/23 02:32:33;;;;;;;5.60;5.07;;;13.50;99.90;;;;;;5036859;28;20216;-87
2022/10/23 02:34:58;;;;;;;5.87;4.77;;;13.50;99.90;;;;;;5039727;28;20197;-86
2022/10/23 02:37:24;;;;;;;9.70;5.40;;;13.60;99.90;;;;;;5038610;28;20272;-87
2022/10/23 02:39:50;;;;;;;7.30;4.90;;;13.60;99.90;;;;;;5039617;28;20198;-86
2022/10/23 02:42:55;;;;;;;6.40;5.30;;;13.60;99.90;;;;;;5040459;28;20188;-86
2022/10/23 02:45:43;;;;;;;8.83;5.53;;;13.70;99.90;;;;;;5033786;28;20190;-86
2022/10/23 02:48:24;;;;;;;5.47;4.93;;;13.70;99.90;;;;;;5038546;28;20268;-86
2022/10/23 02:51:08;;;;;;;5.67;4.63;;;13.70;99.90;;;;;;5040534;28;20299;-86
2022/10/23 02:53:37;;;;;;;5.20;4.80;;;13.70;99.90;;;;;;5037785;28;20181;-86
2022/10/23 02:56:13;;;;;;;5.63;4.87;;;13.60;99.90;;;;;;5039934;28;20211;-86
2022/10/23 02:59:04;;;;;;;5.40;4.90;;;13.70;99.90;;;;;;5040498;28;20715;-86
2022/10/23 03:01:44;;;;;;;6.97;4.60;;;13.80;99.90;;;;;;5036565;28;20231;-87
2022/10/23 03:04:12;;;;;;;5.37;4.60;;;13.60;99.90;;;;;;5039433;28;20181;-86
2022/10/23 03:06:37;;;;;;;6.60;4.70;;;13.70;99.90;;;;;;5039178;28;20181;-87
2022/10/23 03:09:08;;;;;;;6.80;5.10;;;13.70;99.90;;;;;;5040421;28;20726;-87
2022/10/23 03:11:34;;;;;;;5.30;4.47;;;13.70;99.90;;;;;;5039194;28;20288;-87
2022/10/23 03:14:00;;;;;;;5.73;4.63;;;13.60;99.90;;;;;;5040124;28;20228;-86
2022/10/23 03:16:26;;;;;;;5.20;4.60;;;13.70;99.90;;;;;;5039490;28;20208;-86
2022/10/23 03:18:52;;;;;;;5.53;4.97;;;13.70;99.90;;;;;;5039449;28;20263;-86
2022/10/23 03:21:18;;;;;;;7.73;4.60;;;13.70;99.90;;;;;;5039585;28;20215;-86
2022/10/23 03:23:43;;;;;;;5.60;4.40;;;13.60;99.90;;;;;;5039739;28;20189;-86
2022/10/23 03:26:09;;;;;;;5.10;4.20;;;13.70;99.90;;;;;;5039980;28;20616;-86
2022/10/23 03:28:35;;;;;;;8.40;4.80;;;13.60;99.90;;;;;;5040280;28;20284;-86
2022/10/23 03:31:01;;;;;;;5.63;4.60;;;13.60;99.90;;;;;;5038209;28;20223;-86
2022/10/23 03:33:28;;;;;;;6.97;5.03;;;13.60;99.90;;;;;;5037457;28;20283;-87
2022/10/23 03:35:54;;;;;;;8.27;5.30;;;13.80;99.90;;;;;;5039523;28;20214;-86
2022/10/23 03:38:19;;;;;;;7.07;4.70;;;13.60;99.90;;;;;;5037931;28;20281;-86
2022/10/23 03:40:45;;;;;;;5.70;4.83;;;13.60;99.90;;;;;;5039172;28;20244;-86
2022/10/23 03:43:11;;;;;;;8.10;4.43;;;13.50;99.90;;;;;;5038085;28;20556;-86
2022/10/23 03:45:37;;;;;;;5.97;4.57;;;13.50;99.90;;;;;;5039486;28;20827;-86
2022/10/23 03:48:04;;;;;;;5.47;4.80;;;13.50;99.90;;;;;;5041470;28;20544;-86
2022/10/23 03:50:30;;;;;;;7.13;4.90;;;13.60;99.90;;;;;;5041159;28;20224;-86
2022/10/23 03:52:55;;;;;;;6.60;4.70;;;13.60;99.90;;;;;;5035642;28;20188;-86
2022/10/23 03:55:21;;;;;;;4.73;4.33;;;13.60;99.90;;;;;;5047298;28;20252;-85
2022/10/23 03:57:47;;;;;;;6.23;4.50;;;13.50;99.90;;;;;;5053887;28;20192;-86
2022/10/23 04:00:13;;;;;;;5.67;4.50;;;13.50;99.90;;;;;;5056493;28;20212;-85
2022/10/23 04:02:39;;;;;;;8.20;4.87;;;13.50;99.90;;;;;;5049183;28;20251;-84
2022/10/23 04:05:05;;;;;;;5.40;4.53;;;13.50;99.90;;;;;;5043896;28;20192;-86
2022/10/23 04:07:30;;;;;;;8.13;4.83;;;13.50;99.90;;;;;;5039295;28;20193;-86
2022/10/23 04:09:56;;;;;;;7.83;5.30;;;13.50;99.90;;;;;;5039241;28;20225;-86
2022/10/23 04:12:22;;;;;;;6.23;5.47;;;13.50;99.90;;;;;;5039138;28;20204;-86
2022/10/23 04:14:48;;;;;;;7.13;4.87;;;13.30;99.90;;;;;;5039318;28;20193;-86
2022/10/23 04:17:13;;;;;;;7.83;4.73;;;13.10;99.90;;;;;;5039271;28;20224;-85
2022/10/23 04:19:39;;;;;;;6.07;5.50;;;13.20;99.90;;;;;;5038622;28;20187;-86
2022/10/23 04:22:04;;;;;;;5.40;5.00;;;13.10;99.90;;;;;;5037590;28;20215;-86
2022/10/23 04:24:30;;;;;;;6.90;5.43;;;13.00;99.90;;;;;;5033938;28;20563;-86
2022/10/23 04:26:56;;;;;;;5.90;4.93;;;13.10;99.90;;;;;;5036473;28;20204;-86
2022/10/23 04:29:23;;;;;;;5.60;4.93;;;13.20;99.90;;;;;;5036433;28;20196;-86
2022/10/23 04:31:50;;;;;;;8.47;5.13;;;13.10;99.90;;;;;;5036496;28;20211;-86
2022/10/23 04:34:17;;;;;;;7.13;4.40;;;13.20;99.90;;;;;;5037280;28;20192;-86
2022/10/23 04:36:42;;;;;;;10.63;4.80;;;13.20;99.90;;;;;;5038045;28;20204;-86
2022/10/23 04:39:09;;;;;;;5.53;4.40;;;13.10;99.90;;;;;;5039064;28;20269;-87
2022/10/23 04:41:34;;;;;;;7.20;4.53;;;13.10;99.90;;;;;;5038269;28;20205;-86
2022/10/23 04:44:00;;;;;;;6.03;4.80;;;13.00;99.90;;;;;;5025080;28;20190;-87
2022/10/23 04:46:26;;;;;;;4.67;4.17;;;13.10;99.90;;;;;;5033391;28;20238;-86
2022/10/23 04:48:51;;;;;;;5.80;4.70;;;13.20;99.90;;;;;;5036754;28;20188;-86
2022/10/23 04:51:17;;;;;;;6.00;4.70;;;13.40;99.90;;;;;;5049348;28;20293;-86
2022/10/23 04:53:43;;;;;;;5.40;4.73;;;13.40;99.90;;;;;;5054332;28;20216;-86
2022/10/23 04:56:13;;;;;;;5.53;5.03;;;13.30;99.90;;;;;;5054972;28;20223;-86
2022/10/23 04:58:38;;;;;;;7.63;4.73;;;13.30;99.90;;;;;;5037977;28;20177;-87
2022/10/23 05:01:06;;;;;;;6.77;4.70;;;13.30;99.90;;;;;;5029562;28;20226;-86
2022/10/23 05:03:32;;;;;;;4.43;4.03;;;13.30;99.90;;;;;;5039401;28;20212;-86
2022/10/23 05:05:58;;;;;;;4.60;4.10;;;13.20;99.90;;;;;;5039698;28;20181;-87
2022/10/23 05:08:24;;;;;;;9.67;4.53;;;13.30;99.90;;;;;;5034671;28;20413;-87
2022/10/23 05:10:49;;;;;;;7.73;4.67;;;13.30;99.90;;;;;;5038047;28;20216;-86
2022/10/23 05:13:19;;;;;;;5.63;4.23;;;13.00;99.90;;;;;;5038102;28;20661;-87
2022/10/23 05:15:47;;;;;;;5.07;4.57;;;12.80;99.90;;;;;;5038860;28;20303;-86
2022/10/23 05:18:19;;;;;;;21.20;19.17;;;12.80;99.90;;;;;;5038179;28;20208;-87
2022/10/23 05:20:48;;;;;;;5.43;4.70;;;12.90;99.90;;;;;;5038272;28;20231;-87
2022/10/23 05:23:17;;;;;;;5.27;4.87;;;13.00;99.90;;;;;;5038360;28;20184;-86
2022/10/23 05:25:42;;;;;;;7.97;4.97;;;13.10;99.90;;;;;;5038063;28;20192;-86
2022/10/23 05:28:08;;;;;;;7.23;6.50;;;13.20;99.90;;;;;;5038042;28;20280;-86
2022/10/23 05:30:34;;;;;;;6.47;5.87;;;13.30;99.90;;;;;;5037848;28;20224;-87
2022/10/23 05:33:03;;;;;;;7.00;6.47;;;13.20;99.90;;;;;;5037680;28;20183;-86
2022/10/23 05:35:29;;;;;;;8.37;7.60;;;13.30;99.90;;;;;;5038214;28;20220;-86
2022/10/23 05:37:57;;;;;;;5.83;5.10;;;13.30;99.90;;;;;;5039901;28;20185;-86
2022/10/23 05:40:24;;;;;;;6.20;5.60;;;13.40;99.90;;;;;;5038262;28;20208;-86
2022/10/23 05:42:49;;;;;;;5.20;4.80;;;13.30;99.90;;;;;;5036552;28;20200;-86
2022/10/23 05:45:15;;;;;;;6.37;5.87;;;13.40;99.90;;;;;;5028267;28;20178;-86
2022/10/23 05:47:43;;;;;;;7.40;5.57;;;13.30;99.90;;;;;;5035096;28;20175;-86
2022/10/23 05:50:09;;;;;;;8.13;6.57;;;13.30;99.90;;;;;;5054573;28;20228;-86
2022/10/23 05:52:35;;;;;;;6.67;4.50;;;13.30;99.90;;;;;;5041598;28;20192;-87
2022/10/23 05:55:00;;;;;;;5.10;4.63;;;13.40;99.90;;;;;;5037898;28;20188;-87
2022/10/23 05:57:26;;;;;;;6.00;5.13;;;13.20;99.90;;;;;;5038043;28;20835;-86
2022/10/23 05:59:52;;;;;;;5.33;4.23;;;13.10;99.90;;;;;;5040988;28;20178;-86
2022/10/23 06:02:18;;;;;;;6.70;4.30;;;13.10;99.90;;;;;;5041046;28;20178;-87
2022/10/23 06:04:43;;;;;;;7.57;4.73;;;13.00;99.90;;;;;;5040081;28;20214;-87
2022/10/23 06:07:09;;;;;;;7.80;4.87;;;12.70;99.90;;;;;;5040797;28;20227;-87
2022/10/23 06:09:35;;;;;;;6.67;6.13;;;12.50;99.90;;;;;;5041249;28;20249;-87
2022/10/23 06:12:01;;;;;;;50.50;47.13;;;12.60;99.90;;;;;;5041403;28;20209;-86
2022/10/23 06:14:27;;;;;;;9.30;8.60;;;12.70;99.90;;;;;;5040981;28;20180;-86
2022/10/23 06:16:53;;;;;;;9.10;8.10;;;12.70;99.90;;;;;;5042012;28;20699;-86
2022/10/23 06:19:18;;;;;;;18.57;17.17;;;12.70;99.90;;;;;;5042935;28;20240;-87
2022/10/23 06:21:44;;;;;;;12.47;11.50;;;12.70;99.90;;;;;;5041169;28;20232;-86
2022/10/23 06:24:10;;;;;;;10.90;10.20;;;12.70;99.90;;;;;;5041504;28;20186;-87
2022/10/23 06:26:35;;;;;;;10.20;9.30;;;12.70;99.90;;;;;;5041691;28;20820;-87
2022/10/23 06:29:01;;;;;;;8.83;7.77;;;12.80;99.90;;;;;;5019923;28;20193;-84
2022/10/23 06:31:27;;;;;;;8.27;6.50;;;12.80;99.90;;;;;;5040415;28;20203;-87
2022/10/23 06:33:54;;;;;;;8.87;6.37;;;12.90;99.90;;;;;;5041231;28;20208;-87
2022/10/23 06:36:20;;;;;;;5.33;4.93;;;13.00;99.90;;;;;;5038655;28;20284;-87
2022/10/23 06:38:45;;;;;;;7.17;6.17;;;13.00;99.90;;;;;;5043576;28;20185;-87
2022/10/23 06:41:21;;;;;;;7.03;5.73;;;13.00;99.90;;;;;;5044319;28;20221;-86
2022/10/23 06:43:48;;;;;;;5.87;5.33;;;13.00;99.90;;;;;;5038837;28;20680;-87
2022/10/23 06:46:15;;;;;;;6.43;5.77;;;12.90;99.90;;;;;;5039023;28;20187;-86
2022/10/23 06:48:41;;;;;;;6.10;5.23;;;13.00;99.90;;;;;;5058567;28;20173;-86
2022/10/23 06:51:09;;;;;;;7.13;5.70;;;13.00;99.90;;;;;;5052965;28;20219;-87
2022/10/23 06:53:35;;;;;;;6.17;5.57;;;13.00;99.90;;;;;;5040233;28;20192;-86
2022/10/23 06:56:03;;;;;;;10.70;5.73;;;13.00;99.90;;;;;;5039758;28;20248;-87
2022/10/23 06:58:29;;;;;;;5.80;5.03;;;13.00;99.90;;;;;;5038192;28;20182;-86
2022/10/23 07:00:58;;;;;;;4.80;4.37;;;13.00;99.90;;;;;;5039072;28;20199;-86
2022/10/23 07:03:24;;;;;;;7.23;4.10;;;12.90;99.90;;;;;;5033820;28;20191;-87
2022/10/23 07:05:49;;;;;;;10.03;5.10;;;12.80;99.90;;;;;;5038047;28;20198;-86
2022/10/23 07:08:15;;;;;;;5.40;5.00;;;12.60;99.90;;;;;;5038644;28;20193;-87
2022/10/23 07:10:41;;;;;;;5.20;4.70;;;12.40;99.90;;;;;;5038888;28;20580;-86
2022/10/23 07:13:11;;;;;;;6.37;4.83;;;12.40;99.90;;;;;;5039504;28;20192;-86
2022/10/23 07:15:38;;;;;;;6.07;5.30;;;12.60;99.90;;;;;;5039014;28;20627;-87
2022/10/23 07:18:05;;;;;;;7.97;4.53;;;12.80;99.90;;;;;;5039458;28;20194;-86
2022/10/23 07:20:31;;;;;;;5.07;4.40;;;12.90;99.90;;;;;;5031700;28;20246;-86
2022/10/23 07:22:57;;;;;;;4.90;4.40;;;13.10;99.90;;;;;;5037182;28;20187;-86
2022/10/23 07:25:25;;;;;;;6.97;4.60;;;13.20;99.90;;;;;;5038330;28;20528;-86
2022/10/23 07:27:51;;;;;;;4.67;4.27;;;13.30;99.90;;;;;;5037659;28;20189;-87
2022/10/23 07:30:18;;;;;;;4.80;4.40;;;13.30;99.90;;;;;;5038643;28;20237;-86
2022/10/23 07:32:44;;;;;;;4.70;4.30;;;13.40;99.90;;;;;;5037663;28;20203;-86
2022/10/23 07:35:11;;;;;;;5.83;4.30;;;13.40;99.90;;;;;;5020890;28;20235;-86
2022/10/23 07:37:37;;;;;;;5.60;4.03;;;13.20;99.90;;;;;;5037602;28;20296;-86
2022/10/23 07:40:04;;;;;;;4.47;4.10;;;13.20;99.90;;;;;;5038067;28;20824;-86
2022/10/23 07:42:30;;;;;;;4.70;4.20;;;13.40;99.90;;;;;;5053619;28;20196;-86
2022/10/23 07:44:56;;;;;;;6.03;4.60;;;13.40;99.90;;;;;;5041150;28;20192;-86
2022/10/23 07:47:21;;;;;;;6.07;4.63;;;13.50;99.90;;;;;;5035914;28;20596;-86
2022/10/23 07:49:47;;;;;;;5.03;4.60;;;13.40;99.90;;;;;;5037548;28;20231;-86
2022/10/23 07:52:13;;;;;;;4.60;4.20;;;13.40;99.90;;;;;;5038003;28;20188;-86
2022/10/23 07:54:38;;;;;;;4.60;4.20;;;13.60;99.90;;;;;;5034074;28;20200;-86
2022/10/23 07:57:06;;;;;;;5.00;4.53;;;13.70;99.90;;;;;;5029481;28;20263;-86
2022/10/23 07:59:32;;;;;;;5.80;4.27;;;13.70;99.90;;;;;;5029201;28;20870;-86
2022/10/23 08:01:58;;;;;;;6.13;4.70;;;13.90;99.90;;;;;;5032273;28;20707;-86
2022/10/23 08:04:24;;;;;;;5.03;4.40;;;13.80;99.90;;;;;;5028646;28;20204;-86
2022/10/23 08:06:50;;;;;;;5.73;5.13;;;13.80;99.90;;;;;;5033852;28;20368;-86
2022/10/23 08:09:15;;;;;;;9.03;4.70;;;13.80;99.90;;;;;;5034671;28;20196;-86
2022/10/23 08:11:41;;;;;;;7.73;4.70;;;13.80;99.90;;;;;;5034758;28;20209;-86
2022/10/23 08:14:07;;;;;;;5.30;4.80;;;13.80;99.90;;;;;;5033691;28;21509;-86
2022/10/23 08:16:35;;;;;;;5.37;4.87;;;13.80;99.90;;;;;;5035659;28;20235;-86
2022/10/23 08:19:01;;;;;;;5.20;4.47;;;13.90;99.90;;;;;;5031596;28;20182;-86
2022/10/23 08:21:27;;;;;;;5.67;5.13;;;14.00;99.90;;;;;;5031259;28;20224;-86
2022/10/23 08:23:55;;;;;;;5.50;5.00;;;13.90;99.90;;;;;;5033582;28;20189;-85
2022/10/23 08:26:21;;;;;;;5.47;5.07;;;14.10;99.90;;;;;;5016675;28;20194;-86
2022/10/23 08:28:47;;;;;;;5.63;4.60;;;14.20;99.90;;;;;;5032813;28;20193;-86
2022/10/23 08:31:18;;;;;;;6.07;4.90;;;14.30;99.90;;;;;;5032166;28;20245;-86
2022/10/23 08:33:44;;;;;;;5.13;4.73;;;14.30;99.90;;;;;;5032485;28;20204;-85
2022/10/23 08:36:18;;;;;;;7.97;4.80;;;14.40;99.90;;;;;;5033360;28;20206;-86
2022/10/23 08:38:45;;;;;;;5.50;5.07;;;14.50;99.90;;;;;;5032216;28;20198;-86
2022/10/23 08:41:40;;;;;;;5.97;5.43;;;14.40;99.90;;;;;;5032551;28;20217;-86
2022/10/23 08:44:25;;;;;;;5.67;5.10;;;14.30;99.90;;;;;;5032728;28;20194;-86
2022/10/23 08:46:59;;;;;;;4.80;4.40;;;14.40;99.90;;;;;;5032906;28;20305;-86
2022/10/23 08:49:40;;;;;;;4.93;4.43;;;14.50;99.90;;;;;;5031469;28;20268;-87
2022/10/23 08:52:27;;;;;;;9.13;5.20;;;14.50;99.90;;;;;;5034112;28;20207;-86
2022/10/23 08:55:22;;;;;;;6.80;4.90;;;14.60;99.90;;;;;;5034427;28;20217;-86
2022/10/23 08:58:06;;;;;;;7.87;4.93;;;14.50;99.90;;;;;;5035088;28;20292;-86
2022/10/23 09:00:32;;;;;;;8.67;5.20;;;14.60;99.90;;;;;;5036654;28;20203;-87
2022/10/23 09:03:01;;;;;;;7.33;5.27;;;14.90;99.90;;;;;;5034157;28;20194;-87
2022/10/23 09:05:30;;;;;;;6.33;4.77;;;15.20;99.90;;;;;;5031607;28;20248;-86
2022/10/23 09:08:25;;;;;;;5.23;4.73;;;15.10;99.90;;;;;;5033181;28;20267;-86
2022/10/23 09:11:02;;;;;;;7.13;5.30;;;15.30;99.90;;;;;;5044468;28;20289;-85
2022/10/23 09:13:54;;;;;;;5.77;5.27;;;15.50;99.90;;;;;;5044230;28;20789;-86
2022/10/23 09:17:14;;;;;;;6.20;4.70;;;15.60;99.90;;;;;;5043389;28;20687;-86
2022/10/23 09:19:40;;;;;;;6.17;4.03;;;15.80;99.90;;;;;;4978714;28;20243;-86
2022/10/23 09:22:05;;;;;;;6.40;4.47;;;15.90;99.90;;;;;;5017537;28;20283;-86
2022/10/23 09:24:32;;;;;;;7.43;4.60;;;15.90;99.90;;;;;;5035441;28;20197;-86
2022/10/23 09:26:59;;;;;;;8.77;4.10;;;16.10;99.90;;;;;;5035490;28;20677;-86
2022/10/23 09:29:34;;;;;;;5.37;4.63;;;16.00;99.90;;;;;;5039420;28;20313;-86
2022/10/23 09:32:03;;;;;;;4.83;4.43;;;16.20;99.90;;;;;;5034633;28;20269;-86
2022/10/23 09:34:31;;;;;;;5.28;4.68;;;16.40;99.90;;;;;;5051428;28;20240;-86
2022/10/23 09:37:02;;;;;;;5.30;4.80;;;16.60;99.90;;;;;;5049482;28;20219;-86
2022/10/23 09:39:33;;;;;;;5.97;4.28;;;16.70;99.90;;;;;;5036169;28;20199;-85
2022/10/23 09:42:03;;;;;;;5.70;4.07;;;17.00;97.70;;;;;;5036625;28;20225;-86
2022/10/23 09:44:32;;;;;;;6.70;4.30;;;17.30;96.70;;;;;;5036623;28;20482;-85
2022/10/23 09:47:12;;;;;;;3.65;3.38;;;17.40;93.90;;;;;;5035411;28;20237;-86
2022/10/23 09:49:45;;;;;;;4.47;4.07;;;17.30;95.40;;;;;;5034969;28;20667;-86
2022/10/23 09:52:10;;;;;;;7.75;4.00;;;17.60;95.00;;;;;;5032346;28;20683;-85
2022/10/23 09:54:47;;;;;;;4.40;3.75;;;17.90;95.20;;;;;;5030767;28;20177;-85
2022/10/23 09:57:38;;;;;;;7.90;4.07;;;18.30;92.10;;;;;;5030542;28;20706;-86
2022/10/23 10:00:26;;;;;;;4.30;3.90;;;18.50;91.40;;;;;;5031587;28;20739;-86
2022/10/23 10:03:04;;;;;;;6.10;3.60;;;18.50;90.80;;;;;;5032193;28;20211;-86
2022/10/23 10:05:35;;;;;;;4.22;3.83;;;18.30;91.40;;;;;;5026523;28;20277;-86
2022/10/23 10:08:33;;;;;;;4.13;3.63;;;18.30;92.10;;;;;;5025044;28;20188;-86
2022/10/23 10:11:09;;;;;;;5.45;3.60;;;18.60;90.50;;;;;;4989997;28;20648;-86
2022/10/23 10:13:43;;;;;;;4.35;3.85;;;18.70;90.30;;;;;;5025606;28;20184;-86
2022/10/23 10:16:30;;;;;;;9.80;3.90;;;18.50;89.90;;;;;;5021518;28;20217;-86
2022/10/23 10:19:13;;;;;;;4.78;3.92;;;18.50;92.80;;;;;;5026653;28;20185;-86
2022/10/23 10:22:09;;;;;;;6.07;3.50;;;18.50;90.20;;;;;;5026515;28;20216;-86
2022/10/23 10:25:06;;;;;;;3.40;3.10;;;18.70;89.90;;;;;;5026878;28;20223;-86
2022/10/23 10:28:09;;;;;;;3.38;3.05;;;19.00;85.50;;;;;;5028705;28;20200;-86
2022/10/23 10:31:07;;;;;;;3.47;3.17;;;19.50;80.90;;;;;;5028267;28;20207;-86
2022/10/23 10:33:48;;;;;;;3.20;3.00;;;20.00;77.00;;;;;;5028544;28;20199;-86
2022/10/23 10:36:53;;;;;;;3.15;2.85;;;20.00;75.70;;;;;;5029692;28;20228;-86
2022/10/23 10:39:30;;;;;;;6.82;3.15;;;19.90;76.30;;;;;;5029933;28;20191;-86
2022/10/23 10:42:01;;;;;;;3.50;3.13;;;19.60;80.00;;;;;;5030158;28;20918;-86
2022/10/23 10:44:44;;;;;;;3.20;2.90;;;19.30;83.20;;;;;;5031418;28;20195;-86
2022/10/23 10:47:32;;;;;;;7.03;4.22;;;19.20;82.50;;;;;;5032258;28;20270;-86
2022/10/23 10:50:07;;;;;;;4.57;3.67;;;19.40;83.80;;;;;;5053036;28;20242;-86
2022/10/23 10:52:43;;;;;;;7.35;3.75;;;19.30;85.00;;;;;;5048530;28;20201;-86
2022/10/23 10:55:32;;;;;;;5.13;4.70;;;19.50;85.10;;;;;;5047008;28;20559;-86
2022/10/23 10:58:19;;;;;;;4.30;4.00;;;19.50;85.70;;;;;;5038187;28;20580;-86
2022/10/23 11:00:48;;;;;;;4.28;3.90;;;19.30;85.30;;;;;;5035427;28;20262;-86
2022/10/23 11:03:36;;;;;;;4.20;3.90;;;19.20;86.80;;;;;;5041868;28;20188;-86
2022/10/23 11:06:04;;;;;;;4.40;4.00;;;19.20;86.80;;;;;;5049383;28;20256;-85
2022/10/23 11:08:38;;;;;;;7.60;4.22;;;19.30;85.90;;;;;;5047566;28;20986;-86
2022/10/23 11:11:16;;;;;;;6.28;4.88;;;19.20;85.90;;;;;;5048957;28;20863;-87
2022/10/23 11:13:43;;;;;;;4.28;3.92;;;19.00;88.50;;;;;;5046322;28;20185;-86
2022/10/23 11:16:32;;;;;;;10.85;5.47;;;19.10;86.90;;;;;;5034257;28;20251;-87
2022/10/23 11:19:12;;;;;;;4.32;3.50;;;19.30;85.80;;;;;;5034000;28;20634;-86
2022/10/23 11:21:56;;;;;;;3.50;3.20;;;19.40;82.00;;;;;;5033849;28;20622;-86
2022/10/23 11:24:59;;;;;;;5.57;3.80;;;19.60;82.90;;;;;;5032567;28;20181;-86
2022/10/23 11:27:28;;;;;;;4.28;3.28;;;19.70;78.70;;;;;;5050831;28;20196;-86
2022/10/23 11:30:15;;;;;;;4.60;3.10;;;19.80;79.60;;;;;;5028270;28;20242;-86
2022/10/23 11:33:13;;;;;;;3.70;3.40;;;20.30;76.00;;;;;;5026971;28;20215;-87
2022/10/23 11:36:06;;;;;;;4.65;4.25;;;20.60;76.30;;;;;;5025746;28;20640;-86
2022/10/23 11:38:36;;;;;;;4.57;3.80;;;20.80;77.00;;;;;;5025363;28;20185;-87
2022/10/23 11:41:05;;;;;;;4.15;3.75;;;21.10;73.70;;;;;;5027418;28;20680;-86
2022/10/23 11:43:46;;;;;;;3.67;3.40;;;21.50;71.70;;;;;;5026167;28;20295;-86
2022/10/23 11:46:14;;;;;;;6.13;4.18;;;21.60;72.10;;;;;;5026442;28;20192;-86
2022/10/23 11:48:43;;;;;;;4.28;3.97;;;21.40;72.40;;;;;;5026441;28;20204;-86
2022/10/23 11:51:27;;;;;;;4.35;3.95;;;21.30;73.30;;;;;;5027647;28;20213;-86
2022/10/23 11:54:05;;;;;;;4.07;3.70;;;21.20;74.90;;;;;;5031721;28;20760;-86
2022/10/23 11:56:33;;;;;;;3.70;3.40;;;21.40;73.00;;;;;;5024397;28;20289;-86
2022/10/23 11:59:15;;;;;;;3.70;3.40;;;21.40;73.00;;;;;;5025575;28;20181;-86
2022/10/23 12:01:43;;;;;;;9.18;4.53;;;21.40;73.30;;;;;;5026486;28;20765;-86
2022/10/23 12:04:12;;;;;;;3.72;3.42;;;21.50;72.50;;;;;;5029854;28;20173;-86
2022/10/23 12:06:59;;;;;;;4.97;3.72;;;21.30;73.40;;;;;;5029070;28;20835;-86
2022/10/23 12:09:44;;;;;;;3.85;3.50;;;21.20;74.30;;;;;;5029123;28;20227;-86
2022/10/23 12:12:10;;;;;;;3.83;3.53;;;20.90;73.70;;;;;;5031141;28;20536;-86
2022/10/23 12:14:37;;;;;;;4.03;3.53;;;20.90;75.70;;;;;;5029578;28;20757;-86
2022/10/23 12:17:23;;;;;;;3.50;3.17;;;20.90;75.80;;;;;;5043662;28;20212;-86
2022/10/23 12:20:00;;;;;;;5.30;3.67;;;21.10;76.10;;;;;;5051732;28;20172;-86
2022/10/23 12:22:32;;;;;;;4.22;3.83;;;21.50;73.20;;;;;;5043288;28;20188;-86
2022/10/23 12:25:29;;;;;;;3.55;3.25;;;21.60;71.50;;;;;;5043393;28;20650;-87
2022/10/23 12:28:26;;;;;;;4.72;3.80;;;21.50;74.60;;;;;;5029101;28;20562;-87
2022/10/23 12:30:52;;;;;;;3.88;3.50;;;21.50;74.50;;;;;;5030553;28;20244;-87
2022/10/23 12:33:20;;;;;;;4.10;3.42;;;21.80;72.00;;;;;;5029811;28;20270;-87
2022/10/23 12:36:15;;;;;;;7.63;3.58;;;22.00;70.00;;;;;;5031656;28;20280;-86
2022/10/23 12:38:44;;;;;;;3.70;3.40;;;21.70;73.70;;;;;;5029841;28;20230;-87
2022/10/23 12:41:24;;;;;;;3.65;3.30;;;22.00;71.40;;;;;;5027414;28;20215;-87
2022/10/23 12:44:11;;;;;;;4.63;3.55;;;22.10;70.40;;;;;;5030201;28;20184;-87
2022/10/23 12:46:45;;;;;;;4.78;3.80;;;21.70;71.60;;;;;;5030047;28;20266;-87
2022/10/23 12:49:20;;;;;;;5.10;3.83;;;21.60;72.20;;;;;;5032617;28;20432;-87
2022/10/23 12:51:57;;;;;;;4.53;3.53;;;21.60;72.70;;;;;;5033950;28;20212;-87
2022/10/23 12:54:23;;;;;;;3.72;3.42;;;21.90;70.90;;;;;;5033980;28;20212;-87
2022/10/23 12:56:48;;;;;;;5.43;4.00;;;22.00;72.00;;;;;;5030628;28;20297;-87
2022/10/23 12:59:23;;;;;;;4.90;3.60;;;22.50;69.60;;;;;;5033369;28;20205;-87
2022/10/23 13:01:48;;;;;;;4.05;3.63;;;22.70;66.70;;;;;;5032591;28;20196;-87
2022/10/23 13:04:33;;;;;;;5.05;3.05;;;23.10;63.00;;;;;;5032196;28;20281;-87
2022/10/23 13:07:02;;;;;;;8.65;3.90;;;23.20;63.20;;;;;;5031771;28;20265;-87
2022/10/23 13:09:39;;;;;;;3.72;3.30;;;23.30;62.30;;;;;;5032560;28;20475;-87
2022/10/23 13:12:07;;;;;;;3.28;3.03;;;23.50;62.80;;;;;;5034216;28;20213;-87